Decoded Metar for KCLI (CLINTONVILLE in WI, USA) (IATA:CLI) | Meteo·Mobile Aviation Weather
aviador You're here:

KCLI Decoded Metar

CLINTONVILLE in WI, USA
Report Time2019-08-19 17:55:00
UTC Time2019-08-19 18:11:04
Flight Rules vfr VFR
Wind260° at 05 kt
W.Decomp.*RWY 27: 5.0 kt HW 0.7 kt LCW
RWY 22: 3.7 kt HW 3.3 kt RCW
RWY 32: 2.6 kt HW 4.2 kt LCW
Visibility9999 m
Phenomena:N/A
Clouds:N/A
Expected CloudBase > 6,800 ft AGL from Temp-Dew spread
CeilingNone
Temp24°C (ISA +11)
Dew Point07°C (34% RH)
AAT21.5°C
QNH1017 hPa
Density Alt2,057 ft
Elevation820 ft
Report Wrong Elevation
Raw Report
KCLI 191755Z AUTO 26005KT 10SM CLR 24/07 A3003 RMK AO2 T02430070
10243 20118=

Extra information for KCLI:More info

Metar Taf Metar & Taf Last 4 Metars F.Rules Stats Wind Profile Meteogram Temp Stats Airport Information Weather charts Add Link Nearby VenuesMetar ALERT Operation Metar Decoded Social comments

AIRNAV info for KCLI